Florence, Arkansas
Current Conditions -  °F | °C
As of 6:53 PM on Tuesday 21 Oct 2014 (Local Time) from KLLQ Reporting Station
Light Rain Light Rain  
Wind Chill: 65°   Ceiling: Unl
Heat Index: 65°   Visibility: 10mi
Dew Point: 60°   Wind: 0mph
Humidity: 84%   Direction: NA
Pressure: 30.03"   Gusts: NA
Location:  33.5819°N, 91.7907°W
Report Text: KLLQ 212353Z AUTO 00000KT 10SM -RA CLR 18/16 A3003 RMK AO2 RAB51 SLP168 P0000 60000 T01830156 10267 20178 53002
Loading
Personal Weather Stations






























Interactive Weather Map
Tropical Storm Tracking
New forecast layout! Learn more

10-Day Weather Forecast

Advertisements
Track Severe Weather on mobile